Time;durP1;ratioP1;P1;durP2;ratioP2;P2;SDS_P1;SDS_P2;PMS_P1;PMS_P2;Temp;Humidity;BMP_temperature;BMP_pressure;BME280_temperature;BME280_humidity;BME280_pressure;Samples;Min_cycle;Max_cycle;Signal;HPM_P1;HPM_P2
2023/02/14 00:01:37;;;;;;;26.58;15.50;;;;;;;2.09;100.00;103351.47;5112975;28;20048;-49
2023/02/14 00:04:07;;;;;;;24.63;14.73;;;;;;;2.12;100.00;103346.28;5112316;28;20039;-51
2023/02/14 00:06:37;;;;;;;27.08;15.68;;;;;;;2.05;100.00;103349.69;5111440;28;20067;-51
2023/02/14 00:09:06;;;;;;;29.50;16.20;;;;;;;2.11;100.00;103349.75;5111435;28;20054;-50
2023/02/14 00:11:35;;;;;;;26.55;16.58;;;;;;;2.02;100.00;103344.47;5110025;28;20055;-52
2023/02/14 00:16:49;;;;;;;26.65;14.82;;;;;;;1.96;100.00;103344.41;5111078;28;20048;-51
2023/02/14 00:19:22;;;;;;;26.40;15.40;;;;;;;1.92;100.00;103348.66;5113991;28;20067;-51
2023/02/14 00:21:50;;;;;;;28.83;15.77;;;;;;;1.89;100.00;103343.47;5110722;28;20051;-53
2023/02/14 00:24:21;;;;;;;28.98;16.33;;;;;;;1.86;100.00;103346.03;5110374;28;20371;-52
2023/02/14 00:26:50;;;;;;;29.27;16.33;;;;;;;1.83;100.00;103344.25;5113920;28;20125;-54
2023/02/14 00:29:21;;;;;;;28.38;16.40;;;;;;;1.81;100.00;103340.78;5114236;28;20071;-49
2023/02/14 00:31:49;;;;;;;27.98;15.05;;;;;;;1.88;100.00;103343.44;5110696;28;20066;-49
2023/02/14 00:34:18;;;;;;;29.45;17.05;;;;;;;1.78;100.00;103345.94;5112599;28;20048;-48
2023/02/14 00:36:48;;;;;;;29.02;15.43;;;;;;;1.78;100.00;103342.47;5114703;27;20056;-50
2023/02/14 00:39:17;;;;;;;28.05;16.08;;;;;;;1.70;100.00;103334.59;5114388;28;20061;-52
2023/02/14 00:41:46;;;;;;;26.35;15.75;;;;;;;1.69;100.00;103332.84;5114573;28;20051;-51
2023/02/14 00:44:14;;;;;;;27.85;15.32;;;;;;;1.69;100.00;103336.31;5113613;28;20486;-52
2023/02/14 00:46:43;;;;;;;25.92;14.73;;;;;;;1.67;100.00;103331.97;5110586;28;20055;-55
2023/02/14 00:49:11;;;;;;;27.77;15.18;;;;;;;1.66;100.00;103330.22;5112561;28;20075;-54
2023/02/14 00:51:41;;;;;;;25.67;14.05;;;;;;;1.63;100.00;103325.00;5113991;28;20616;-50
2023/02/14 00:54:11;;;;;;;24.85;14.30;;;;;;;1.58;100.00;103331.84;5110079;28;20398;-49
2023/02/14 00:56:39;;;;;;;24.48;14.00;;;;;;;1.61;100.00;103331.88;5109481;28;20043;-51
2023/02/14 00:59:07;;;;;;;26.60;15.00;;;;;;;1.58;100.00;103334.44;5112271;28;20043;-50
2023/02/14 01:01:35;;;;;;;24.77;14.35;;;;;;;1.53;100.00;103334.41;5112304;28;20059;-49
2023/02/14 01:04:04;;;;;;;24.52;14.10;;;;;;;1.47;100.00;103342.97;5109880;28;20043;-52
2023/02/14 01:06:32;;;;;;;25.42;14.13;;;;;;;1.45;100.00;103336.88;5113033;28;20040;-50
2023/02/14 01:09:01;;;;;;;26.42;13.52;;;;;;;1.46;100.00;103341.22;5110690;28;20076;-49
2023/02/14 01:11:30;;;;;;;23.02;13.75;;;;;;;1.48;100.00;103338.66;5108735;28;20055;-52
2023/02/14 01:14:00;;;;;;;23.02;13.27;;;;;;;1.45;100.00;103329.09;5110678;28;20122;-52
2023/02/14 01:16:29;;;;;;;26.58;14.88;;;;;;;1.46;100.00;103336.03;5110056;28;20108;-48
2023/02/14 01:18:59;;;;;;;24.40;14.40;;;;;;;1.39;100.00;103339.41;5113065;28;20048;-51
2023/02/14 01:21:30;;;;;;;23.17;13.15;;;;;;;1.36;100.00;103334.16;5113420;28;20056;-53
2023/02/14 01:24:01;;;;;;;22.85;13.70;;;;;;;1.30;100.00;103332.38;5113783;28;20050;-50
2023/02/14 01:26:31;;;;;;;22.38;12.90;;;;;;;1.29;100.00;103329.75;5111135;28;20559;-51
2023/02/14 01:28:59;;;;;;;24.80;13.77;;;;;;;1.30;100.00;103331.50;5110439;28;20126;-52
2023/02/14 01:31:29;;;;;;;21.92;13.15;;;;;;;1.26;100.00;103329.72;5109386;28;20071;-51
2023/02/14 01:33:58;;;;;;;23.85;12.88;;;;;;;1.25;100.00;103326.25;5110522;28;20051;-52
2023/02/14 01:36:29;;;;;;;21.42;12.63;;;;;;;1.22;100.00;103333.97;5110653;28;20069;-51
2023/02/14 01:38:59;;;;;;;24.80;13.70;;;;;;;1.26;100.00;103329.72;5113522;28;20051;-50
2023/02/14 01:41:34;;;;;;;20.20;12.57;;;;;;;1.20;100.00;103325.31;5113404;28;20494;-53
2023/02/14 01:44:04;;;;;;;24.70;13.63;;;;;;;1.13;100.00;103324.38;5110382;28;20054;-48
2023/02/14 01:46:35;;;;;;;23.30;13.13;;;;;;;1.09;100.00;103332.94;5109609;28;20048;-53
2023/02/14 01:49:06;;;;;;;21.88;12.75;;;;;;;1.08;100.00;103330.31;5113304;28;20048;-53
2023/02/14 01:51:37;;;;;;;24.50;13.20;;;;;;;1.01;100.00;103331.97;5113295;28;20054;-48
2023/02/14 01:54:08;;;;;;;21.48;12.70;;;;;;;0.97;100.00;103327.59;5112846;28;20498;-51
2023/02/14 01:56:43;;;;;;;22.40;12.88;;;;;;;0.92;100.00;103324.06;5113081;28;20032;-50
2023/02/14 01:59:16;;;;;;;22.63;12.18;;;;;;;0.93;100.00;103320.63;5112442;28;20043;-51
2023/02/14 02:01:45;;;;;;;24.52;13.77;;;;;;;0.87;100.00;103326.56;5107894;28;20097;-52
2023/02/14 02:04:17;;;;;;;22.10;12.82;;;;;;;0.89;100.00;103329.19;5109058;28;20051;-48
2023/02/14 02:06:51;;;;;;;24.20;12.73;;;;;;;0.85;100.00;103330.84;5109475;28;20378;-49
2023/02/14 02:09:24;;;;;;;21.17;12.15;;;;;;;0.86;100.00;103321.34;5108474;28;20043;-48
2023/02/14 02:11:54;;;;;;;23.77;12.15;;;;;;;0.83;100.00;103315.28;5108613;28;20116;-49
2023/02/14 02:14:23;;;;;;;22.10;12.40;;;;;;;0.82;100.00;103317.88;5110542;28;20047;-50
2023/02/14 02:17:18;;;;;;;21.00;11.85;;;;;;;0.81;100.00;103324.75;5113068;28;20430;-51
2023/02/14 02:20:13;;;;;;;23.70;12.50;;;;;;;0.83;100.00;103311.81;5109270;28;20502;-50
2023/02/14 02:23:23;;;;;;;21.92;11.35;;;;;;;0.76;100.00;103315.16;5107459;28;20386;-52
2023/02/14 02:26:25;;;;;;;20.13;11.98;;;;;;;0.72;100.00;103310.78;5042895;28;20113;-52
2023/02/14 02:29:20;;;;;;;26.58;12.52;;;;;;;0.66;100.00;103309.84;5112897;28;20047;-52
2023/02/14 02:32:12;;;;;;;21.58;11.65;;;;;;;0.73;100.00;103303.03;5112833;28;20043;-52
2023/02/14 02:35:14;;;;;;;19.65;11.82;;;;;;;0.72;100.00;103309.06;5109033;28;20047;-49
2023/02/14 02:37:54;;;;;;;22.65;12.35;;;;;;;0.71;100.00;103309.03;5104192;28;20060;-52
2023/02/14 02:40:37;;;;;;;22.08;11.65;;;;;;;0.72;100.00;103298.69;5111549;28;20441;-51
2023/02/14 02:43:17;;;;;;;20.00;10.90;;;;;;;0.64;100.00;103308.06;5112898;28;20048;-51
2023/02/14 02:48:43;;;;;;;17.98;10.85;;;;;;;0.62;100.00;103310.63;5109925;28;20089;-52
2023/02/14 02:54:14;;;;;;;19.33;10.85;;;;;;;0.53;100.00;103301.84;5112665;28;20050;-51
2023/02/14 02:56:49;;;;;;;20.30;10.50;;;;;;;0.46;100.00;103303.47;5112564;28;20124;-53
2023/02/14 02:59:22;;;;;;;19.55;10.85;;;;;;;0.45;100.00;103297.44;5112488;28;20056;-51
2023/02/14 03:01:54;;;;;;;18.55;10.68;;;;;;;0.40;100.00;103301.66;5112615;28;20413;-53
2023/02/14 03:09:58;;;;;;;18.73;10.68;;;;;;;0.46;100.00;103301.78;5112371;28;20189;-52
2023/02/14 03:12:57;;;;;;;19.52;10.45;;;;;;;0.38;100.00;103305.06;5107398;28;20044;-52
2023/02/14 03:15:40;;;;;;;17.63;9.85;;;;;;;0.30;100.00;103308.41;5110785;28;20054;-47
2023/02/14 03:21:25;;;;;;;17.05;10.52;;;;;;;0.31;100.00;103293.72;5112016;28;20478;-49
2023/02/14 03:24:04;;;;;;;19.98;10.55;;;;;;;0.30;100.00;103302.34;5112354;28;20056;-48
2023/02/14 03:26:38;;;;;;;18.55;10.20;;;;;;;0.29;100.00;103301.47;5113101;28;20075;-49
2023/02/14 03:29:15;;;;;;;20.42;11.45;;;;;;;0.25;100.00;103294.50;5116066;27;20093;-47
2023/02/14 03:31:53;;;;;;;18.35;10.10;;;;;;;0.19;100.00;103288.34;5115713;28;20063;-48
2023/02/14 03:34:27;;;;;;;19.08;10.77;;;;;;;0.20;100.00;103284.91;5115953;28;20474;-48
2023/02/14 03:37:00;;;;;;;19.63;11.15;;;;;;;0.21;100.00;103286.66;5112581;28;20035;-51
2023/02/14 03:39:38;;;;;;;21.15;10.45;;;;;;;0.22;100.00;103285.78;5112066;28;20051;-51
2023/02/14 03:42:11;;;;;;;16.85;10.50;;;;;;;0.26;100.00;103292.78;5115627;28;20088;-52
2023/02/14 03:44:42;;;;;;;17.63;10.35;;;;;;;0.28;100.00;103293.69;5115326;28;20112;-48
2023/02/14 03:47:14;;;;;;;18.13;10.55;;;;;;;0.25;100.00;103286.72;5111706;28;20043;-52
2023/02/14 03:49:48;;;;;;;16.33;9.23;;;;;;;0.21;100.00;103284.94;5112507;28;20498;-52
2023/02/14 03:52:18;;;;;;;16.48;9.90;;;;;;;0.15;100.00;103293.47;5113926;28;20058;-49
2023/02/14 03:54:51;;;;;;;18.05;9.73;;;;;;;0.13;100.00;103292.56;5110729;28;20097;-50
2023/02/14 03:57:24;;;;;;;17.80;9.57;;;;;;;0.10;100.00;103292.50;5110557;28;20050;-52
2023/02/14 03:59:54;;;;;;;17.75;10.25;;;;;;;0.12;100.00;103292.53;5112247;28;20515;-51
2023/02/14 04:02:27;;;;;;;16.55;9.00;;;;;;;0.07;100.00;103295.06;5115298;28;20047;-51
2023/02/14 04:04:58;;;;;;;17.17;9.63;;;;;;;0.09;100.00;103300.25;5113937;28;20048;-48
2023/02/14 04:07:26;;;;;;;14.90;8.53;;;;;;;0.02;100.00;103294.09;5115239;28;20555;-51
2023/02/14 04:09:56;;;;;;;15.73;8.98;;;;;;;0.04;100.00;103294.13;5111726;28;20487;-51
2023/02/14 04:12:24;;;;;;;16.80;9.07;;;;;;;0.05;100.00;103307.06;5110108;28;20547;-51
2023/02/14 04:15:06;;;;;;;16.40;9.23;;;;;;;0.09;100.00;103295.94;5111649;28;20059;-52
2023/02/14 04:20:20;;;;;;;13.73;8.50;;;;;;;0.05;100.00;103304.50;5111438;28;20067;-52
2023/02/14 04:22:50;;;;;;;16.50;9.05;;;;;;;0.04;100.00;103309.66;5113663;28;20525;-52
2023/02/14 04:25:21;;;;;;;13.80;8.00;;;;;;;0.00;100.00;103303.56;5110494;28;20063;-53
2023/02/14 04:27:50;;;;;;;15.48;8.38;;;;;;;-0.06;100.00;103308.59;5111987;28;20079;-52
2023/02/14 04:30:19;;;;;;;16.67;9.18;;;;;;;-0.10;100.00;103306.81;5113422;28;20118;-51
2023/02/14 04:32:47;;;;;;;14.75;8.48;;;;;;;-0.14;100.00;103305.00;5114543;28;20081;-51
2023/02/14 04:35:16;;;;;;;13.10;7.50;;;;;;;-0.20;100.00;103298.88;5114410;28;20047;-50
2023/02/14 04:37:45;;;;;;;15.10;9.27;;;;;;;-0.21;100.00;103309.19;5113396;28;20051;-50
2023/02/14 04:40:16;;;;;;;14.73;8.82;;;;;;;-0.12;100.00;103303.31;5114386;28;20074;-49
2023/02/14 04:42:46;;;;;;;13.68;7.93;;;;;;;-0.21;100.00;103304.00;5114710;28;20151;-49
2023/02/14 04:45:15;;;;;;;13.98;8.60;;;;;;;-0.26;100.00;103298.75;5114359;28;20048;-53
2023/02/14 04:47:43;;;;;;;15.68;8.85;;;;;;;-0.27;100.00;103298.72;5114288;28;20084;-53
2023/02/14 04:50:12;;;;;;;14.95;7.75;;;;;;;-0.27;100.00;103293.53;5114444;28;20097;-51
2023/02/14 04:52:40;;;;;;;12.68;7.70;;;;;;;-0.28;100.00;103284.06;5114384;28;20043;-51
2023/02/14 04:55:09;;;;;;;13.77;8.50;;;;;;;-0.28;100.00;103286.63;5110784;28;20039;-53
2023/02/14 04:57:38;;;;;;;14.00;8.00;;;;;;;-0.31;100.00;103287.44;5109510;28;20122;-47
2023/02/14 05:00:08;;;;;;;11.55;7.07;;;;;;;-0.29;100.00;103283.16;5113152;28;20127;-52
2023/02/14 05:02:37;;;;;;;13.07;7.75;;;;;;;-0.26;100.00;103280.66;5109875;28;20051;-52
2023/02/14 05:05:06;;;;;;;14.52;7.63;;;;;;;-0.28;100.00;103276.28;5110980;28;20096;-50
2023/02/14 05:07:34;;;;;;;12.27;7.80;;;;;;;-0.30;100.00;103283.13;5113578;28;20509;-49
2023/02/14 05:10:03;;;;;;;14.57;7.05;;;;;;;-0.37;100.00;103279.56;5113844;28;20039;-50
2023/02/14 05:12:31;;;;;;;13.05;7.25;;;;;;;-0.37;100.00;103267.53;5110168;28;20498;-52
2023/02/14 05:14:59;;;;;;;13.40;7.03;;;;;;;-0.35;100.00;103270.13;5110598;28;20498;-51
2023/02/14 05:17:28;;;;;;;11.82;6.75;;;;;;;-0.39;100.00;103266.59;5112919;28;20506;-53
2023/02/14 05:19:57;;;;;;;12.65;7.07;;;;;;;-0.47;100.00;103265.56;5110337;28;20043;-52
2023/02/14 05:22:25;;;;;;;11.80;7.10;;;;;;;-0.48;100.00;103268.13;5111946;28;20113;-51
2023/02/14 05:24:53;;;;;;;13.88;7.68;;;;;;;-0.53;100.00;103268.91;5113809;28;20123;-50
2023/02/14 05:27:21;;;;;;;12.73;7.07;;;;;;;-0.59;100.00;103255.84;5113589;28;20048;-50
2023/02/14 05:29:49;;;;;;;13.63;7.50;;;;;;;-0.56;100.00;103261.13;5113583;28;20048;-50
2023/02/14 05:32:17;;;;;;;13.93;8.10;;;;;;;-0.57;100.00;103256.78;5113415;28;20040;-50
2023/02/14 05:34:47;;;;;;;13.77;7.68;;;;;;;-0.56;100.00;103255.06;5113578;28;20053;-50
2023/02/14 05:37:15;;;;;;;14.32;7.80;;;;;;;-0.60;100.00;103258.41;5112051;28;20093;-50
2023/02/14 05:39:43;;;;;;;11.88;7.15;;;;;;;-0.61;100.00;103257.56;5112310;28;20051;-51
2023/02/14 05:42:11;;;;;;;13.85;7.78;;;;;;;-0.65;100.00;103266.09;5112056;28;20078;-51
2023/02/14 05:44:39;;;;;;;11.75;7.22;;;;;;;-0.63;100.00;103263.53;5113435;28;20050;-50
2023/02/14 05:47:07;;;;;;;10.68;6.78;;;;;;;-0.62;100.00;103267.88;5111991;28;20055;-50
2023/02/14 05:49:35;;;;;;;12.20;7.07;;;;;;;-0.65;100.00;103268.69;5112794;28;20097;-49
2023/02/14 05:52:05;;;;;;;12.35;7.18;;;;;;;-0.66;100.00;103264.34;5113228;28;20518;-50
2023/02/14 05:54:34;;;;;;;11.95;7.30;;;;;;;-0.70;100.00;103270.28;5113057;28;20100;-48
2023/02/14 05:57:02;;;;;;;13.52;7.93;;;;;;;-0.72;100.00;103267.69;5113427;28;20044;-50
2023/02/14 05:59:30;;;;;;;12.90;7.43;;;;;;;-0.71;100.00;103268.53;5111369;28;20039;-49
2023/02/14 06:01:58;;;;;;;11.80;7.22;;;;;;;-0.74;100.00;103274.50;5109147;28;20052;-52
2023/02/14 06:04:26;;;;;;;13.18;7.45;;;;;;;-0.74;100.00;103271.06;5111535;28;20043;-49
2023/02/14 06:06:54;;;;;;;13.35;7.43;;;;;;;-0.72;100.00;103266.81;5109667;28;20043;-49
2023/02/14 06:09:24;;;;;;;11.80;6.55;;;;;;;-0.72;100.00;103259.91;5108730;28;20047;-49
2023/02/14 06:11:52;;;;;;;11.95;7.13;;;;;;;-0.72;100.00;103264.22;5107083;28;20082;-49
2023/02/14 06:14:22;;;;;;;12.20;7.18;;;;;;;-0.70;100.00;103262.53;5108936;28;20047;-48
2023/02/14 06:16:50;;;;;;;11.75;6.78;;;;;;;-0.73;100.00;103270.22;5111707;28;20047;-51
2023/02/14 06:19:21;;;;;;;11.27;6.45;;;;;;;-0.78;100.00;103264.09;5112786;28;20044;-49
2023/02/14 06:21:49;;;;;;;13.27;7.82;;;;;;;-0.79;100.00;103275.25;5111155;28;20510;-48
2023/02/14 06:24:17;;;;;;;12.35;7.05;;;;;;;-0.84;100.00;103269.16;5108567;28;20082;-50
2023/02/14 06:26:47;;;;;;;12.77;6.90;;;;;;;-0.90;100.00;103270.75;5107670;28;20055;-50
2023/02/14 06:29:17;;;;;;;14.05;7.47;;;;;;;-0.92;100.00;103280.16;5111314;28;20051;-50
2023/02/14 06:31:45;;;;;;;13.95;7.22;;;;;;;-0.86;100.00;103275.13;5109237;28;20047;-51
2023/02/14 06:34:13;;;;;;;11.50;7.20;;;;;;;-0.91;100.00;103268.13;5109164;28;20050;-52
2023/02/14 06:36:43;;;;;;;12.98;7.85;;;;;;;-0.93;100.00;103281.00;5112924;28;20078;-50
2023/02/14 06:39:11;;;;;;;14.07;7.25;;;;;;;-0.94;100.00;103283.53;5112797;28;20101;-49
2023/02/14 06:41:39;;;;;;;13.25;8.02;;;;;;;-0.91;100.00;103276.75;5112807;28;20105;-49
2023/02/14 06:44:09;;;;;;;14.35;8.38;;;;;;;-0.94;100.00;103278.38;5112529;28;20043;-48
2023/02/14 06:46:37;;;;;;;14.82;8.77;;;;;;;-0.97;100.00;103279.19;5106970;28;20062;-52
2023/02/14 06:49:05;;;;;;;15.07;9.25;;;;;;;-0.97;100.00;103276.59;5108804;28;20044;-50
2023/02/14 06:51:33;;;;;;;13.88;8.80;;;;;;;-0.99;100.00;103278.28;5108548;28;20043;-52
2023/02/14 06:54:01;;;;;;;13.40;8.32;;;;;;;-0.98;100.00;103277.47;5108463;28;20085;-47
2023/02/14 06:56:30;;;;;;;14.30;8.88;;;;;;;-0.98;100.00;103282.63;5110842;28;20486;-48
2023/02/14 06:58:58;;;;;;;14.30;8.45;;;;;;;-1.02;100.00;103275.66;5112542;28;20043;-48
2023/02/14 07:01:27;;;;;;;13.98;8.43;;;;;;;-1.04;100.00;103285.94;5112075;28;20085;-52
2023/02/14 07:03:55;;;;;;;13.25;7.88;;;;;;;-1.04;100.00;103287.66;5112842;28;20050;-49
2023/02/14 07:06:24;;;;;;;14.73;8.02;;;;;;;-1.02;100.00;103294.59;5114547;28;20545;-52
2023/02/14 07:08:52;;;;;;;14.38;9.00;;;;;;;-1.00;100.00;103292.03;5116298;28;20085;-47
2023/02/14 07:11:20;;;;;;;13.90;8.45;;;;;;;-1.01;100.00;103287.69;5115935;27;20379;-50
2023/02/14 07:13:48;;;;;;;14.23;7.35;;;;;;;-1.02;100.00;103293.72;5115258;28;20078;-48
2023/02/14 07:16:18;;;;;;;16.33;8.38;;;;;;;-1.01;100.00;103298.03;5112042;28;20051;-49
2023/02/14 07:18:48;;;;;;;13.50;7.65;;;;;;;-0.97;100.00;103293.81;5114457;28;20069;-47
2023/02/14 07:21:16;;;;;;;14.13;8.02;;;;;;;-0.99;100.00;103287.78;5115961;28;20062;-48
2023/02/14 07:23:46;;;;;;;13.43;8.45;;;;;;;-0.97;100.00;103293.81;5116266;28;20043;-47
2023/02/14 07:26:16;;;;;;;14.55;8.63;;;;;;;-0.96;100.00;103293.84;5111424;28;20073;-49
2023/02/14 07:28:45;;;;;;;14.30;8.27;;;;;;;-0.84;100.00;103297.56;5112273;28;20138;-47
2023/02/14 07:31:13;;;;;;;15.02;8.38;;;;;;;-0.63;100.00;103298.00;5113918;28;20048;-48
2023/02/14 07:33:41;;;;;;;16.30;9.10;;;;;;;-0.36;100.00;103296.81;5115772;28;20402;-48
2023/02/14 07:36:12;;;;;;;14.40;8.18;;;;;;;-0.28;100.00;103296.97;5114567;28;20383;-48
2023/02/14 07:38:40;;;;;;;14.70;9.38;;;;;;;-0.06;100.00;103295.66;5115705;28;20380;-49
2023/02/14 07:41:08;;;;;;;16.67;9.13;;;;;;;0.11;100.00;103304.63;5115693;28;20506;-49
2023/02/14 07:43:38;;;;;;;14.15;8.57;;;;;;;0.21;100.00;103310.81;5115488;28;20051;-49
2023/02/14 07:46:07;;;;;;;13.75;7.50;;;;;;;0.35;100.00;103305.88;5115335;28;20138;-52
2023/02/14 07:48:35;;;;;;;15.77;8.85;;;;;;;0.49;100.00;103308.69;5115292;28;20039;-48
2023/02/14 07:51:03;;;;;;;15.30;8.63;;;;;;;0.63;100.00;103306.34;5115450;28;20043;-47
2023/02/14 07:53:33;;;;;;;15.45;9.10;;;;;;;0.70;100.00;103308.19;5115355;28;20051;-49
2023/02/14 07:56:01;;;;;;;13.73;8.32;;;;;;;0.87;100.00;103299.78;5115438;28;20035;-47
2023/02/14 07:58:29;;;;;;;15.23;9.60;;;;;;;1.05;100.00;103312.13;5115774;28;20464;-48
2023/02/14 08:00:57;;;;;;;13.68;8.00;;;;;;;1.24;100.00;103305.47;5115356;28;20100;-49
2023/02/14 08:03:26;;;;;;;15.45;8.85;;;;;;;1.43;100.00;103304.88;5115070;28;20040;-46
2023/02/14 08:05:56;;;;;;;15.43;10.07;;;;;;;1.45;100.00;103310.94;5115061;28;20039;-50
2023/02/14 08:08:26;;;;;;;16.58;9.38;;;;;;;1.71;100.00;103307.78;5114981;28;20032;-51
2023/02/14 08:10:56;;;;;;;16.02;10.07;;;;;;;1.82;100.00;103307.91;5115213;28;20066;-51
2023/02/14 08:13:24;;;;;;;18.63;10.50;;;;;;;2.13;100.00;103305.66;5112693;27;20065;-50
2023/02/14 08:16:04;;;;;;;17.17;10.73;;;;;;;2.19;100.00;103301.34;5111642;28;20051;-48
2023/02/14 08:18:38;;;;;;;19.10;11.27;;;;;;;2.51;100.00;103297.31;5114983;28;20047;-51
2023/02/14 08:21:08;;;;;;;21.65;12.35;;;;;;;2.56;100.00;103290.41;5114945;28;20356;-50
2023/02/14 08:23:37;;;;;;;20.08;12.82;;;;;;;2.81;100.00;103291.47;5115024;28;20051;-53
2023/02/14 08:26:07;;;;;;;26.98;14.10;;;;;;;2.97;100.00;103291.53;5114740;28;20039;-53
2023/02/14 08:28:35;;;;;;;21.08;13.95;;;;;;;3.12;100.00;103285.56;5110869;28;20071;-48
2023/02/14 08:31:04;;;;;;;23.58;13.93;;;;;;;3.48;100.00;103292.66;5111585;28;20043;-48
2023/02/14 08:33:32;;;;;;;25.08;14.38;;;;;;;3.47;100.00;103290.91;5113215;28;20094;-49
2023/02/14 08:36:01;;;;;;;21.95;13.38;;;;;;;3.70;100.00;103287.53;5111711;28;20551;-50
2023/02/14 08:38:29;;;;;;;20.38;13.38;;;;;;;3.92;100.00;103291.06;5113532;28;20043;-48
2023/02/14 08:41:00;;;;;;;20.23;13.48;;;;;;;4.25;100.00;103284.13;5114625;28;20059;-47
2023/02/14 08:43:33;;;;;;;26.30;13.85;;;;;;;4.38;100.00;103285.03;5114485;28;20048;-49
2023/02/14 08:46:01;;;;;;;20.52;13.00;;;;;;;4.49;100.00;103298.06;5114638;28;20043;-48
2023/02/14 08:48:30;;;;;;;21.48;13.43;;;;;;;4.54;100.00;103285.88;5114288;28;20071;-50
2023/02/14 08:50:58;;;;;;;22.83;14.07;;;;;;;4.66;100.00;103285.00;5114631;28;20035;-48
2023/02/14 08:53:27;;;;;;;21.25;12.95;;;;;;;4.66;100.00;103279.78;5110744;28;20044;-49
2023/02/14 08:55:55;;;;;;;21.38;14.30;;;;;;;4.88;100.00;103280.59;5109868;28;20440;-48
2023/02/14 08:58:23;;;;;;;22.27;14.32;;;;;;;4.82;100.00;103280.63;5111758;28;20104;-53
2023/02/14 09:00:54;;;;;;;23.17;13.35;;;;;;;4.74;100.00;103283.25;5110843;28;20044;-50
2023/02/14 09:03:22;;;;;;;20.63;12.52;;;;;;;4.80;100.00;103280.63;5112274;28;20078;-50
2023/02/14 09:05:50;;;;;;;23.05;14.52;;;;;;;4.86;100.00;103282.34;5113639;28;20052;-48
2023/02/14 09:08:18;;;;;;;23.55;14.02;;;;;;;5.05;100.00;103283.19;5129598;27;20499;-51
2023/02/14 09:10:47;;;;;;;23.92;14.27;;;;;;;4.89;100.00;103280.63;5113980;28;20031;-51
2023/02/14 09:13:15;;;;;;;23.05;14.93;;;;;;;5.23;100.00;103280.50;5111229;28;20551;-51
2023/02/14 09:15:43;;;;;;;23.45;14.77;;;;;;;5.21;100.00;103279.63;5110204;28;20058;-51
2023/02/14 09:18:13;;;;;;;23.33;15.57;;;;;;;5.18;100.00;103279.66;5109815;28;20043;-51
2023/02/14 09:20:43;;;;;;;22.77;15.43;;;;;;;5.16;100.00;103281.38;5108487;28;20115;-52
2023/02/14 09:23:13;;;;;;;23.27;14.82;;;;;;;5.28;100.00;103279.63;5108531;28;20052;-50
2023/02/14 09:25:41;;;;;;;23.13;14.32;;;;;;;5.48;100.00;103283.03;5108357;28;20052;-49
2023/02/14 09:28:10;;;;;;;20.13;14.52;;;;;;;5.62;100.00;103279.44;5111734;28;20092;-51
2023/02/14 09:30:38;;;;;;;21.42;14.50;;;;;;;5.55;100.00;103274.28;5108415;28;20141;-50
2023/02/14 09:33:06;;;;;;;22.77;15.40;;;;;;;5.58;100.00;103273.41;5110028;28;20483;-53
2023/02/14 09:38:21;;;;;;;22.40;15.38;;;;;;;5.71;100.00;103272.44;5111787;28;20044;-51
2023/02/14 09:40:52;;;;;;;20.88;13.98;;;;;;;5.84;100.00;103272.38;5108726;28;20050;-53
2023/02/14 09:43:29;;;;;;;22.15;15.13;;;;;;;5.95;100.00;103267.09;5111781;28;20129;-51
2023/02/14 09:46:01;;;;;;;22.17;14.52;;;;;;;5.96;100.00;103267.06;5112856;28;20052;-48
2023/02/14 09:48:32;;;;;;;23.45;13.57;;;;;;;6.17;100.00;103268.66;5108905;28;20047;-47
2023/02/14 09:51:05;;;;;;;23.52;14.57;;;;;;;6.24;100.00;103270.38;5109734;28;20057;-48
2023/02/14 09:53:34;;;;;;;;;;;;;;;6.38;100.00;103269.38;5109526;28;20058;-47
2023/02/14 09:56:10;;;;;;;21.42;13.80;;;;;;;6.51;100.00;103260.53;5108280;28;19924;-48
2023/02/14 09:58:45;;;;;;;29.70;13.90;;;;;;;6.65;100.00;103267.38;5109466;28;20141;-48
2023/02/14 10:01:19;;;;;;;22.45;14.07;;;;;;;6.77;100.00;103264.63;5108991;28;20097;-47
2023/02/14 10:04:16;;;;;;;22.67;13.93;;;;;;;6.95;100.00;103263.56;5109630;28;20048;-49
2023/02/14 10:06:54;;;;;;;22.63;14.63;;;;;;;7.16;100.00;103252.00;5109084;28;20126;-48
2023/02/14 10:09:44;;;;;;;21.30;14.52;;;;;;;7.38;100.00;103262.19;5108469;28;20039;-50
2023/02/14 10:12:20;;;;;;;21.05;14.07;;;;;;;7.65;100.00;103260.94;5106620;28;20383;-48
2023/02/14 10:14:50;;;;;;;19.35;13.13;;;;;;;7.86;100.00;103256.28;5128065;27;20092;-48
2023/02/14 10:17:25;;;;;;;20.17;13.55;;;;;;;8.26;100.00;103253.88;5113146;28;20055;-47
2023/02/14 10:19:57;;;;;;;22.50;13.05;;;;;;;8.42;100.00;103254.47;5111667;28;20451;-48
2023/02/14 10:22:31;;;;;;;;;;;;;;;8.63;100.00;103250.63;5113134;28;20133;-48
2023/02/14 10:25:05;;;;;;;20.88;13.63;;;;;;;9.40;100.00;103252.59;5112777;28;20413;-48
2023/02/14 10:27:38;;;;;;;21.20;12.73;;;;;;;9.57;100.00;103252.22;5112758;28;20051;-49
2023/02/14 10:30:13;;;;;;;18.90;12.63;;;;;;;9.99;100.00;103244.22;5111644;28;20079;-48
2023/02/14 10:32:45;;;;;;;19.42;13.25;;;;;;;10.00;100.00;103251.22;5108947;28;20047;-53
2023/02/14 10:35:23;;;;;;;20.80;12.98;;;;;;;10.22;100.00;103250.69;5111335;28;20101;-49
2023/02/14 10:38:05;;;;;;;17.77;12.55;;;;;;;10.51;100.00;103244.69;5116469;28;20590;-51
2023/02/14 10:40:54;;;;;;;18.45;12.60;;;;;;;10.78;100.00;103250.13;5111838;28;20127;-52
2023/02/14 10:43:33;;;;;;;18.17;12.57;;;;;;;10.89;100.00;103252.44;5114983;28;20055;-48
2023/02/14 10:46:12;;;;;;;18.42;12.25;;;;;;;10.99;100.00;103248.66;5116918;28;20059;-51
2023/02/14 10:48:51;;;;;;;18.58;12.75;;;;;;;11.48;100.00;103251.63;5113100;28;20464;-50
2023/02/14 10:51:24;;;;;;;18.10;12.73;;;;;;;11.59;100.00;103248.63;5114776;28;20044;-51
2023/02/14 10:54:09;;;;;;;21.35;12.38;;;;;;;11.83;100.00;103246.97;5116760;27;20118;-51
2023/02/14 10:56:43;;;;;;;20.23;12.50;;;;;;;11.79;100.00;103240.09;5116572;28;20428;-51
2023/02/14 10:59:22;;;;;;;19.55;12.73;;;;;;;12.01;100.00;103237.63;5116580;28;20105;-51
2023/02/14 11:01:52;;;;;;;18.08;12.02;;;;;;;12.17;100.00;103240.63;5116648;28;20048;-52
2023/02/14 11:04:23;;;;;;;20.88;12.13;;;;;;;12.12;100.00;103235.53;5114124;28;20039;-52
2023/02/14 11:06:52;;;;;;;19.05;13.27;;;;;;;12.45;100.00;103223.84;5112971;28;20525;-50
2023/02/14 11:09:22;;;;;;;19.88;13.18;;;;;;;12.55;100.00;103225.25;5116141;28;20047;-50
2023/02/14 11:11:53;;;;;;;18.67;12.30;;;;;;;12.76;100.00;103217.44;5116537;28;20039;-52
2023/02/14 11:14:25;;;;;;;21.90;13.25;;;;;;;12.92;100.00;103213.31;5116750;28;20051;-51
2023/02/14 11:16:54;;;;;;;21.90;13.48;;;;;;;12.94;100.00;103216.78;5113133;28;20047;-48
2023/02/14 11:19:25;;;;;;;19.52;12.38;;;;;;;13.38;100.00;103216.03;5112358;28;20051;-49
2023/02/14 11:21:55;;;;;;;23.85;13.15;;;;;;;13.55;100.00;103211.84;5113030;27;20051;-49
2023/02/14 11:24:31;;;;;;;18.55;12.50;;;;;;;13.54;100.00;103211.00;5110196;28;20498;-49
2023/02/14 11:27:01;;;;;;;20.58;11.88;;;;;;;13.55;100.00;103209.19;5111414;28;20048;-47
2023/02/14 11:29:31;;;;;;;19.30;12.23;;;;;;;13.69;100.00;103206.88;5110754;28;20043;-49
2023/02/14 11:32:08;;;;;;;18.67;12.07;;;;;;;13.65;100.00;103199.97;5115810;28;20048;-49
2023/02/14 11:34:39;;;;;;;19.05;12.75;;;;;;;13.93;100.00;103204.13;5115805;28;20043;-47
2023/02/14 11:37:26;;;;;;;18.77;12.63;;;;;;;14.09;99.26;103191.09;5115607;28;20056;-49
2023/02/14 11:39:58;;;;;;;19.20;13.23;;;;;;;14.05;97.28;103186.88;5112481;28;20494;-48
2023/02/14 11:42:35;;;;;;;20.63;12.55;;;;;;;14.30;96.89;103192.81;5110658;28;20043;-51
2023/02/14 11:45:05;;;;;;;18.10;12.32;;;;;;;13.93;95.67;103186.44;5114559;28;20051;-50
2023/02/14 11:47:40;;;;;;;17.80;13.20;;;;;;;14.20;95.23;103178.25;5110760;28;20048;-48
2023/02/14 11:50:22;;;;;;;18.75;12.82;;;;;;;14.40;94.26;103180.03;5112996;28;20048;-48
2023/02/14 11:52:53;;;;;;;18.25;12.63;;;;;;;14.66;91.02;103176.25;5115398;28;20402;-48